Time;durP1;ratioP1;P1;durP2;ratioP2;P2;SDS_P1;SDS_P2;PMS_P1;PMS_P2;Temp;Humidity;BMP_temperature;BMP_pressure;BME280_temperature;BME280_humidity;BME280_pressure;Samples;Min_cycle;Max_cycle;Signal;HPM_P1;HPM_P2
2021/06/17 00:00:16;;;;;;;7.47;4.60;;;22.70;70.10;;;;;;5080516;28;20242;-83
2021/06/17 00:02:43;;;;;;;8.38;5.18;;;22.70;70.20;;;;;;5079944;28;20207;-83
2021/06/17 00:05:11;;;;;;;7.65;4.60;;;22.70;70.20;;;;;;5080405;28;20187;-83
2021/06/17 00:07:37;;;;;;;12.18;5.13;;;22.60;70.80;;;;;;5080616;28;20172;-85
2021/06/17 00:10:07;;;;;;;10.07;4.73;;;22.50;71.20;;;;;;5079952;28;20301;-84
2021/06/17 00:12:33;;;;;;;7.35;4.88;;;22.50;71.20;;;;;;5080105;28;20450;-83
2021/06/17 00:14:59;;;;;;;10.25;5.35;;;22.50;71.00;;;;;;5080728;28;20176;-85
2021/06/17 00:17:25;;;;;;;8.43;6.00;;;22.50;70.90;;;;;;5079509;28;20177;-84
2021/06/17 00:19:51;;;;;;;8.23;4.77;;;22.40;70.80;;;;;;5078408;28;20169;-85
2021/06/17 00:22:16;;;;;;;11.33;5.50;;;22.40;70.90;;;;;;5078530;28;20222;-83
2021/06/17 00:24:42;;;;;;;8.23;4.77;;;22.40;71.00;;;;;;5078169;28;20186;-83
2021/06/17 00:27:08;;;;;;;8.40;4.50;;;22.40;71.30;;;;;;5078062;28;20176;-83
2021/06/17 00:29:34;;;;;;;8.63;5.03;;;22.40;70.90;;;;;;5077877;28;20433;-83
2021/06/17 00:31:59;;;;;;;10.60;5.10;;;22.40;70.60;;;;;;5078359;28;20193;-84
2021/06/17 00:34:25;;;;;;;8.60;5.20;;;22.30;71.30;;;;;;5078145;28;20168;-84
2021/06/17 00:36:51;;;;;;;7.13;4.63;;;22.30;71.30;;;;;;5077616;28;20226;-85
2021/06/17 00:39:17;;;;;;;8.90;4.77;;;22.20;71.70;;;;;;5076940;28;20553;-85
2021/06/17 00:41:43;;;;;;;9.13;5.20;;;22.20;71.90;;;;;;5077313;28;20798;-83
2021/06/17 00:44:09;;;;;;;7.30;4.95;;;22.20;71.60;;;;;;5076721;28;20738;-84
2021/06/17 00:46:35;;;;;;;7.50;4.82;;;22.20;72.30;;;;;;5077436;28;20173;-83
2021/06/17 00:49:03;;;;;;;9.18;5.30;;;22.20;71.90;;;;;;5077569;28;20172;-83
2021/06/17 00:51:28;;;;;;;6.75;4.68;;;22.10;72.10;;;;;;5076868;28;20173;-83
2021/06/17 00:53:54;;;;;;;15.70;5.17;;;22.10;72.40;;;;;;5076797;28;20172;-84
2021/06/17 00:56:20;;;;;;;8.60;4.70;;;22.10;72.00;;;;;;5077130;28;20207;-84
2021/06/17 00:58:46;;;;;;;7.20;4.30;;;22.10;72.30;;;;;;5077188;28;20732;-83
2021/06/17 01:01:12;;;;;;;9.20;5.13;;;22.10;72.30;;;;;;5077476;28;20465;-85
2021/06/17 01:03:37;;;;;;;8.40;4.83;;;22.00;72.30;;;;;;5077176;28;21021;-83
2021/06/17 01:06:03;;;;;;;10.17;5.20;;;22.00;72.70;;;;;;5077951;28;20168;-83
2021/06/17 01:08:40;;;;;;;9.13;4.77;;;21.90;72.60;;;;;;5078282;28;20484;-83
2021/06/17 01:11:15;;;;;;;8.50;4.93;;;21.90;73.30;;;;;;5077367;28;20414;-83
2021/06/17 01:13:47;;;;;;;8.07;5.43;;;21.80;73.50;;;;;;5077522;28;20192;-83
2021/06/17 01:16:28;;;;;;;10.82;5.22;;;21.80;73.40;;;;;;5077695;28;20736;-83
2021/06/17 01:19:01;;;;;;;10.48;5.05;;;21.80;73.70;;;;;;5077550;28;20638;-83
2021/06/17 01:21:36;;;;;;;9.82;5.70;;;21.80;73.70;;;;;;5077889;28;20188;-83
2021/06/17 01:24:24;;;;;;;10.98;5.15;;;21.70;74.20;;;;;;5078045;28;20196;-83
2021/06/17 01:27:20;;;;;;;12.13;5.32;;;21.60;74.20;;;;;;5077960;28;20188;-84
2021/06/17 01:29:52;;;;;;;5.93;4.32;;;21.60;74.50;;;;;;5077096;28;20163;-83
2021/06/17 01:32:20;;;;;;;7.97;4.72;;;21.60;74.20;;;;;;5076832;28;20632;-83
2021/06/17 01:34:49;;;;;;;7.65;4.85;;;21.50;74.40;;;;;;5077663;28;20199;-84
2021/06/17 01:37:17;;;;;;;8.20;4.93;;;21.50;74.20;;;;;;5078115;28;20286;-83
2021/06/17 01:39:45;;;;;;;8.48;5.22;;;21.50;74.10;;;;;;5077335;28;20309;-83
2021/06/17 01:42:12;;;;;;;6.38;4.28;;;21.50;74.10;;;;;;5077398;28;20192;-83
2021/06/17 01:44:38;;;;;;;6.80;4.70;;;21.50;73.90;;;;;;5077106;28;20235;-83
2021/06/17 01:47:06;;;;;;;8.85;4.57;;;21.40;73.90;;;;;;5077469;28;20650;-84
2021/06/17 01:49:36;;;;;;;9.15;5.05;;;21.40;74.10;;;;;;5060747;28;20196;-83
2021/06/17 01:52:04;;;;;;;10.65;4.53;;;21.40;73.80;;;;;;5076252;28;20191;-83
2021/06/17 01:54:31;;;;;;;6.22;4.40;;;21.40;73.80;;;;;;5077008;28;20177;-83
2021/06/17 01:56:59;;;;;;;8.27;4.43;;;21.40;73.90;;;;;;5076879;28;20244;-83
2021/06/17 01:59:27;;;;;;;6.18;3.88;;;21.30;73.90;;;;;;5076763;28;20276;-84
2021/06/17 02:01:58;;;;;;;9.30;4.63;;;21.30;73.90;;;;;;5076589;28;20704;-84
2021/06/17 02:04:27;;;;;;;6.30;4.65;;;21.30;73.90;;;;;;5075951;28;20631;-83
2021/06/17 02:06:53;;;;;;;7.15;4.10;;;21.20;74.10;;;;;;5075541;28;20168;-83
2021/06/17 02:09:21;;;;;;;11.80;4.32;;;21.20;73.80;;;;;;5074957;28;20255;-83
2021/06/17 02:11:48;;;;;;;7.22;4.20;;;21.20;73.90;;;;;;5075361;28;20330;-83
2021/06/17 02:14:14;;;;;;;8.60;4.85;;;21.20;73.90;;;;;;5075281;28;20659;-83
2021/06/17 02:16:42;;;;;;;13.43;4.95;;;21.20;73.90;;;;;;5075384;28;20655;-83
2021/06/17 02:19:12;;;;;;;8.18;4.65;;;21.10;74.20;;;;;;5075709;28;20180;-82
2021/06/17 02:21:39;;;;;;;7.85;5.07;;;21.10;74.40;;;;;;5075539;28;20160;-81
2021/06/17 02:24:08;;;;;;;8.60;4.20;;;21.10;74.50;;;;;;5075491;28;20224;-83
2021/06/17 02:26:38;;;;;;;7.95;4.88;;;21.00;74.90;;;;;;5075792;28;20172;-83
2021/06/17 02:29:06;;;;;;;6.32;4.18;;;21.00;74.80;;;;;;5075739;28;20222;-83
2021/06/17 02:31:34;;;;;;;9.15;5.25;;;20.90;75.10;;;;;;5075850;28;20545;-82
2021/06/17 02:34:00;;;;;;;9.43;5.28;;;20.90;74.90;;;;;;5076252;28;20580;-81
2021/06/17 02:36:27;;;;;;;6.93;4.67;;;20.80;75.20;;;;;;5077609;28;20169;-82
2021/06/17 02:38:57;;;;;;;12.93;4.80;;;20.80;75.60;;;;;;5076580;28;20471;-83
2021/06/17 02:41:25;;;;;;;7.65;5.93;;;20.70;75.90;;;;;;5075856;28;20176;-83
2021/06/17 02:43:54;;;;;;;12.75;4.72;;;20.70;75.80;;;;;;5076266;28;20200;-82
2021/06/17 02:46:21;;;;;;;14.52;5.40;;;20.70;75.60;;;;;;5076199;28;20733;-82
2021/06/17 02:48:48;;;;;;;9.80;5.45;;;20.60;76.30;;;;;;5075839;28;20172;-83
2021/06/17 02:51:13;;;;;;;6.85;4.30;;;20.60;76.40;;;;;;5075643;28;20172;-83
2021/06/17 02:53:40;;;;;;;8.17;5.30;;;20.50;76.60;;;;;;5075201;28;20206;-83
2021/06/17 02:56:47;;;;;;;9.27;5.20;;;20.60;76.70;;;;;;5075197;28;20485;-83
2021/06/17 02:59:35;;;;;;;12.57;4.68;;;20.60;76.40;;;;;;5075199;28;20184;-83
2021/06/17 03:02:18;;;;;;;4.95;4.20;;;20.50;76.40;;;;;;5075666;28;20822;-82
2021/06/17 03:04:52;;;;;;;9.35;5.03;;;20.50;76.20;;;;;;5076451;28;20192;-83
2021/06/17 03:07:29;;;;;;;7.80;4.32;;;20.50;76.20;;;;;;5075147;28;20164;-83
2021/06/17 03:10:08;;;;;;;8.85;4.38;;;20.50;76.30;;;;;;5075648;28;20175;-83
2021/06/17 03:12:34;;;;;;;7.82;4.85;;;20.50;75.80;;;;;;5076217;28;20191;-83
2021/06/17 03:15:06;;;;;;;8.70;5.85;;;20.50;75.90;;;;;;5074894;28;20172;-82
2021/06/17 03:17:35;;;;;;;6.82;4.88;;;20.50;76.90;;;;;;5074797;28;20237;-81
2021/06/17 03:20:05;;;;;;;9.32;4.00;;;20.40;76.30;;;;;;5073876;28;20173;-82
2021/06/17 03:22:32;;;;;;;8.55;5.45;;;20.40;76.30;;;;;;5074036;28;20200;-83
2021/06/17 03:25:03;;;;;;;8.13;4.65;;;20.40;76.40;;;;;;5074107;28;20164;-83
2021/06/17 03:27:29;;;;;;;7.65;5.28;;;20.40;76.40;;;;;;5074554;28;20156;-83
2021/06/17 03:29:56;;;;;;;7.90;4.72;;;20.40;76.30;;;;;;5077427;28;20218;-82
2021/06/17 03:32:26;;;;;;;9.32;4.82;;;20.40;77.00;;;;;;5077490;28;20750;-83
2021/06/17 03:34:52;;;;;;;6.70;5.25;;;20.40;76.40;;;;;;5078356;28;20697;-82
2021/06/17 03:37:20;;;;;;;9.77;4.95;;;20.40;76.70;;;;;;5078347;28;20168;-82
2021/06/17 03:39:47;;;;;;;8.82;4.72;;;20.40;76.60;;;;;;5077440;28;20177;-81
2021/06/17 03:42:15;;;;;;;7.95;4.40;;;20.40;77.40;;;;;;5077255;28;20223;-83
2021/06/17 03:44:42;;;;;;;6.15;4.20;;;20.40;76.90;;;;;;5077247;28;20201;-82
2021/06/17 03:47:11;;;;;;;14.07;5.80;;;20.40;77.70;;;;;;5077563;28;20515;-83
2021/06/17 03:49:38;;;;;;;11.73;4.78;;;20.40;77.60;;;;;;5077750;28;20192;-82
2021/06/17 03:52:04;;;;;;;8.52;4.47;;;20.30;77.40;;;;;;5079275;28;20723;-82
2021/06/17 03:54:32;;;;;;;9.68;5.88;;;20.30;77.70;;;;;;5077057;28;20176;-82
2021/06/17 03:57:01;;;;;;;8.63;5.32;;;20.30;78.10;;;;;;5076898;28;20176;-82
2021/06/17 03:59:30;;;;;;;7.60;4.88;;;20.30;78.10;;;;;;5079119;28;20182;-79
2021/06/17 04:01:57;;;;;;;9.77;4.65;;;20.30;78.70;;;;;;5078380;28;20199;-80
2021/06/17 04:04:23;;;;;;;6.20;4.30;;;20.30;78.70;;;;;;5078903;28;20228;-81
2021/06/17 04:06:54;;;;;;;8.35;4.55;;;20.30;79.10;;;;;;5079233;28;20554;-80
2021/06/17 04:09:28;;;;;;;11.95;5.95;;;20.30;79.10;;;;;;5080273;28;20171;-80
2021/06/17 04:12:03;;;;;;;10.75;5.15;;;20.30;79.50;;;;;;5079138;28;20184;-80
2021/06/17 04:14:30;;;;;;;11.25;5.60;;;20.30;80.20;;;;;;5080427;28;20318;-80
2021/06/17 04:16:56;;;;;;;9.98;6.25;;;20.30;80.20;;;;;;5079879;28;20713;-80
2021/06/17 04:19:25;;;;;;;18.98;6.00;;;20.30;80.50;;;;;;5079947;28;20172;-81
2021/06/17 04:21:54;;;;;;;14.20;5.30;;;20.30;80.50;;;;;;5079039;28;20192;-81
2021/06/17 04:24:23;;;;;;;9.52;6.32;;;20.30;80.60;;;;;;5078380;28;20204;-82
2021/06/17 04:26:53;;;;;;;11.93;5.20;;;20.30;80.60;;;;;;5077509;28;20169;-81
2021/06/17 04:29:20;;;;;;;11.40;5.50;;;20.40;80.30;;;;;;5084921;28;20173;-81
2021/06/17 04:31:49;;;;;;;9.25;5.30;;;20.40;80.30;;;;;;5083223;28;20192;-81
2021/06/17 04:34:16;;;;;;;11.52;5.20;;;20.50;80.20;;;;;;5085006;28;20805;-82
2021/06/17 04:36:43;;;;;;;7.50;4.65;;;20.50;79.90;;;;;;5081026;28;20168;-83
2021/06/17 04:39:09;;;;;;;10.98;5.05;;;20.50;79.40;;;;;;5080885;28;20169;-82
2021/06/17 04:41:37;;;;;;;7.63;4.90;;;20.60;79.10;;;;;;5081111;28;20271;-84
2021/06/17 04:44:04;;;;;;;10.07;5.45;;;20.70;79.10;;;;;;5081281;28;20236;-83
2021/06/17 04:46:31;;;;;;;10.23;4.75;;;20.80;78.80;;;;;;5081823;28;20186;-82
2021/06/17 04:48:57;;;;;;;8.18;5.68;;;20.80;78.50;;;;;;5081377;28;20168;-82
2021/06/17 04:51:26;;;;;;;10.38;5.72;;;20.90;78.50;;;;;;5081077;28;20169;-83
2021/06/17 04:53:53;;;;;;;14.15;5.03;;;21.00;78.30;;;;;;5081880;28;20172;-82
2021/06/17 04:56:19;;;;;;;13.50;6.32;;;21.00;78.00;;;;;;5082017;28;20200;-83
2021/06/17 04:58:49;;;;;;;16.40;5.60;;;21.10;78.10;;;;;;5082172;28;20192;-83
2021/06/17 05:01:17;;;;;;;8.60;6.05;;;21.10;78.10;;;;;;5082432;28;20414;-83
2021/06/17 05:03:44;;;;;;;9.68;5.78;;;21.20;77.10;;;;;;5081245;28;20204;-83
2021/06/17 05:06:11;;;;;;;13.18;5.95;;;21.30;76.90;;;;;;5079635;28;20177;-82
2021/06/17 05:11:22;;;;;;;13.25;6.50;;;21.40;76.40;;;;;;5083017;28;20156;-83
2021/06/17 05:13:47;;;;;;;14.05;6.13;;;21.50;76.60;;;;;;5080556;28;20241;-82
2021/06/17 05:16:13;;;;;;;15.80;7.40;;;21.60;76.70;;;;;;5079773;28;20173;-83
2021/06/17 05:18:39;;;;;;;13.40;7.67;;;21.60;77.00;;;;;;5079562;28;20241;-82
2021/06/17 05:21:07;;;;;;;11.18;6.70;;;21.60;76.60;;;;;;5079207;28;20797;-82
2021/06/17 05:23:34;;;;;;;13.60;6.57;;;21.70;76.90;;;;;;5078397;28;20743;-82
2021/06/17 05:26:00;;;;;;;10.90;5.78;;;21.80;77.30;;;;;;5081308;28;20629;-81
2021/06/17 05:28:28;;;;;;;8.40;5.70;;;21.90;76.20;;;;;;5081352;28;20176;-82
2021/06/17 05:30:59;;;;;;;7.47;5.97;;;21.90;75.50;;;;;;5098820;28;20561;-82
2021/06/17 05:33:25;;;;;;;26.92;6.57;;;22.00;75.90;;;;;;5099946;28;20278;-82
2021/06/17 05:35:51;;;;;;;8.80;5.57;;;22.10;75.20;;;;;;5100148;28;20651;-82
2021/06/17 05:38:21;;;;;;;9.43;5.93;;;22.10;75.20;;;;;;5100526;28;20182;-83
2021/06/17 05:40:47;;;;;;;14.73;5.82;;;22.10;75.30;;;;;;5101989;28;20452;-83
2021/06/17 05:43:16;;;;;;;12.65;6.05;;;22.20;74.90;;;;;;5100295;28;20200;-81
2021/06/17 05:45:42;;;;;;;9.30;5.57;;;22.30;75.10;;;;;;5101930;28;20530;-82
2021/06/17 05:48:08;;;;;;;9.52;5.65;;;22.40;74.60;;;;;;5100783;28;20174;-82
2021/06/17 05:50:34;;;;;;;11.43;6.18;;;22.50;74.20;;;;;;5100121;28;20231;-81
2021/06/17 05:53:00;;;;;;;20.85;6.32;;;22.70;73.70;;;;;;5100382;28;20188;-81
2021/06/17 05:55:26;;;;;;;18.02;6.78;;;22.80;73.40;;;;;;5096829;28;20271;-82
2021/06/17 05:57:52;;;;;;;15.73;7.60;;;22.80;73.70;;;;;;5096897;28;20665;-82
2021/06/17 06:00:18;;;;;;;11.70;6.85;;;22.90;73.30;;;;;;5097540;28;20266;-82
2021/06/17 06:02:44;;;;;;;15.07;7.30;;;23.00;72.70;;;;;;5099146;28;20202;-83
2021/06/17 06:05:10;;;;;;;14.43;7.47;;;23.10;72.30;;;;;;5099532;28;20171;-81
2021/06/17 06:07:38;;;;;;;15.38;6.70;;;23.20;71.90;;;;;;5098455;28;20417;-82
2021/06/17 06:10:08;;;;;;;12.25;7.10;;;23.30;71.40;;;;;;5096837;28;20191;-81
2021/06/17 06:12:34;;;;;;;16.35;7.28;;;23.40;71.40;;;;;;5099433;28;20202;-81
2021/06/17 06:15:00;;;;;;;9.23;6.07;;;23.50;71.60;;;;;;5099955;28;20551;-81
2021/06/17 06:17:25;;;;;;;15.93;6.87;;;23.70;70.10;;;;;;5100882;28;20412;-82
2021/06/17 06:19:51;;;;;;;12.23;6.23;;;23.80;69.50;;;;;;5102414;28;20406;-82
2021/06/17 06:22:17;;;;;;;13.97;6.10;;;23.90;69.10;;;;;;5102409;28;20469;-82
2021/06/17 06:24:43;;;;;;;13.33;6.10;;;24.00;68.50;;;;;;5100984;28;20536;-82
2021/06/17 06:27:09;;;;;;;14.10;6.40;;;24.10;68.30;;;;;;5102342;28;20168;-81
2021/06/17 06:29:35;;;;;;;12.32;6.90;;;24.20;68.40;;;;;;5101747;28;20172;-81
2021/06/17 06:32:02;;;;;;;13.95;6.97;;;24.30;67.60;;;;;;5100791;28;20187;-81
2021/06/17 06:34:28;;;;;;;11.02;5.97;;;24.30;68.00;;;;;;5097812;28;20175;-82
2021/06/17 06:36:54;;;;;;;10.85;6.28;;;24.40;67.60;;;;;;5100176;28;20175;-82
2021/06/17 06:39:20;;;;;;;20.50;7.33;;;24.50;68.00;;;;;;5101013;28;20171;-82
2021/06/17 06:41:47;;;;;;;9.68;6.18;;;24.60;67.00;;;;;;5099479;28;20288;-81
2021/06/17 06:44:13;;;;;;;18.77;5.63;;;24.70;67.30;;;;;;5098029;28;20199;-82
2021/06/17 06:46:40;;;;;;;16.10;6.85;;;24.90;65.50;;;;;;5099330;28;20174;-82
2021/06/17 06:49:06;;;;;;;20.40;6.53;;;25.00;64.60;;;;;;5103006;28;20220;-83
2021/06/17 06:51:36;;;;;;;17.10;6.30;;;25.10;65.20;;;;;;5102236;28;20168;-82
2021/06/17 06:54:02;;;;;;;12.18;5.97;;;25.40;64.90;;;;;;5103785;28;20905;-82
2021/06/17 06:56:28;;;;;;;12.40;6.70;;;25.50;65.10;;;;;;5102458;28;20168;-82
2021/06/17 06:58:54;;;;;;;12.50;6.37;;;25.70;63.70;;;;;;5103178;28;20211;-81
2021/06/17 07:01:20;;;;;;;9.00;5.47;;;25.80;64.10;;;;;;5104298;28;20483;-82
2021/06/17 07:03:46;;;;;;;8.48;6.00;;;26.00;63.90;;;;;;5104036;28;20449;-82
2021/06/17 07:06:12;;;;;;;17.23;6.93;;;26.10;63.00;;;;;;5103744;28;20175;-81
2021/06/17 07:08:37;;;;;;;11.63;5.17;;;26.30;63.50;;;;;;5104853;28;20179;-82
2021/06/17 07:11:03;;;;;;;11.50;6.30;;;26.50;62.30;;;;;;5103856;28;20570;-83
2021/06/17 07:13:29;;;;;;;15.33;6.40;;;26.60;63.10;;;;;;5103089;28;20202;-82
2021/06/17 07:15:55;;;;;;;16.00;6.03;;;26.70;61.40;;;;;;5102812;28;20175;-83
2021/06/17 07:18:21;;;;;;;11.35;5.78;;;26.80;61.70;;;;;;5104976;28;20418;-83
2021/06/17 07:20:47;;;;;;;14.63;6.20;;;27.00;61.00;;;;;;5101142;28;20179;-84
2021/06/17 07:23:14;;;;;;;14.93;5.73;;;27.20;60.80;;;;;;5101745;28;20208;-83
2021/06/17 07:25:41;;;;;;;14.00;6.47;;;27.30;61.30;;;;;;5101911;28;20504;-83
2021/06/17 07:28:07;;;;;;;19.40;6.35;;;27.50;59.80;;;;;;5103947;28;20168;-83
2021/06/17 07:30:33;;;;;;;10.10;6.07;;;27.70;60.00;;;;;;5102725;28;20192;-81
2021/06/17 07:32:59;;;;;;;15.37;5.90;;;27.90;59.80;;;;;;5102888;28;20217;-82
2021/06/17 07:35:24;;;;;;;15.00;6.70;;;28.10;58.00;;;;;;5101689;28;20410;-82
2021/06/17 07:37:50;;;;;;;9.47;4.90;;;28.20;58.10;;;;;;5102216;28;20175;-83
2021/06/17 07:40:17;;;;;;;15.17;6.07;;;28.30;58.00;;;;;;5102392;28;20414;-82
2021/06/17 07:42:43;;;;;;;9.70;4.80;;;28.40;58.30;;;;;;5100213;28;20429;-81
2021/06/17 07:45:11;;;;;;;9.85;6.15;;;28.60;56.80;;;;;;5100399;28;20186;-83
2021/06/17 07:47:38;;;;;;;12.48;6.05;;;28.70;56.20;;;;;;5100044;28;20655;-82
2021/06/17 07:50:05;;;;;;;20.38;6.03;;;28.80;57.50;;;;;;5098061;28;20204;-84
2021/06/17 07:52:31;;;;;;;18.55;5.93;;;29.00;55.90;;;;;;5098099;28;20222;-84
2021/06/17 07:54:57;;;;;;;8.13;5.10;;;29.20;57.00;;;;;;5097834;28;20259;-84
2021/06/17 07:57:23;;;;;;;14.13;6.55;;;29.40;55.90;;;;;;5102104;28;20592;-80
2021/06/17 07:59:49;;;;;;;12.87;6.47;;;29.50;53.80;;;;;;5101254;28;20168;-80
2021/06/17 08:02:14;;;;;;;18.60;5.90;;;29.80;53.80;;;;;;5100503;28;20735;-81
2021/06/17 08:04:40;;;;;;;12.50;5.33;;;29.90;52.90;;;;;;5099145;28;20199;-82
2021/06/17 08:07:06;;;;;;;9.20;5.23;;;30.00;53.60;;;;;;5097980;28;20164;-82
2021/06/17 08:09:33;;;;;;;10.70;6.17;;;30.10;53.60;;;;;;5096619;28;20168;-83
2021/06/17 08:11:59;;;;;;;15.02;7.20;;;30.30;52.80;;;;;;5095162;28;20453;-85
2021/06/17 08:14:26;;;;;;;9.10;5.15;;;30.50;52.10;;;;;;5095936;28;20652;-85
2021/06/17 08:16:54;;;;;;;8.55;4.95;;;30.60;51.30;;;;;;5098232;28;20194;-83
2021/06/17 08:19:26;;;;;;;23.35;5.43;;;30.70;51.50;;;;;;5099081;28;20183;-85
2021/06/17 08:21:52;;;;;;;11.77;5.75;;;30.70;51.30;;;;;;5097373;28;20663;-83
2021/06/17 08:24:18;;;;;;;9.17;4.80;;;30.70;51.60;;;;;;5098827;28;20192;-83
2021/06/17 08:26:43;;;;;;;11.13;5.60;;;30.90;50.90;;;;;;5097970;28;20409;-84
2021/06/17 08:29:09;;;;;;;13.23;5.33;;;31.10;50.70;;;;;;5098029;28;20428;-84
2021/06/17 08:31:38;;;;;;;16.27;5.40;;;31.10;50.80;;;;;;5097533;28;20268;-83
2021/06/17 08:34:04;;;;;;;12.43;6.03;;;31.30;50.10;;;;;;5098547;28;20171;-84
2021/06/17 08:36:30;;;;;;;18.13;5.57;;;31.40;49.20;;;;;;5098640;28;20176;-84
2021/06/17 08:38:56;;;;;;;10.48;4.53;;;31.50;49.50;;;;;;5101847;28;20179;-82
2021/06/17 08:41:21;;;;;;;8.30;4.70;;;31.50;50.10;;;;;;5100828;28;20517;-82
2021/06/17 08:43:47;;;;;;;9.80;4.73;;;31.60;48.10;;;;;;5100999;28;20304;-82
2021/06/17 08:46:13;;;;;;;8.43;5.00;;;31.70;49.60;;;;;;5100333;28;20164;-83
2021/06/17 08:48:40;;;;;;;16.20;5.27;;;31.80;49.10;;;;;;5100398;28;20178;-83
2021/06/17 08:51:07;;;;;;;11.63;4.40;;;32.10;49.40;;;;;;5099420;28;20171;-81
2021/06/17 08:53:33;;;;;;;7.45;5.13;;;32.30;48.20;;;;;;5100934;28;20668;-82
2021/06/17 08:55:59;;;;;;;8.27;5.20;;;32.40;46.90;;;;;;5100965;28;20178;-82
2021/06/17 08:58:25;;;;;;;9.50;5.60;;;32.50;47.50;;;;;;5099693;28;20433;-82
2021/06/17 09:00:50;;;;;;;9.57;4.93;;;32.60;48.20;;;;;;5099542;28;20179;-82
2021/06/17 09:03:19;;;;;;;10.13;5.47;;;32.70;47.10;;;;;;5100554;28;20203;-82
2021/06/17 09:05:50;;;;;;;10.00;5.18;;;32.90;45.70;;;;;;5097975;28;20416;-81
2021/06/17 09:08:27;;;;;;;12.25;4.97;;;33.00;46.10;;;;;;5097912;28;20172;-82
2021/06/17 09:10:54;;;;;;;14.27;4.80;;;33.10;45.20;;;;;;5097772;28;20171;-82
2021/06/17 09:13:21;;;;;;;10.00;5.05;;;33.20;45.70;;;;;;5098593;28;20195;-82
2021/06/17 09:15:52;;;;;;;10.77;5.05;;;33.40;44.10;;;;;;5098190;28;20195;-83
2021/06/17 09:18:26;;;;;;;7.95;5.00;;;33.50;43.70;;;;;;5097693;28;20202;-82
2021/06/17 09:21:10;;;;;;;9.60;4.57;;;33.70;43.20;;;;;;5098207;28;20164;-82
2021/06/17 09:23:39;;;;;;;11.23;4.50;;;34.00;42.60;;;;;;5099808;28;20239;-82
2021/06/17 09:26:18;;;;;;;6.03;4.53;;;34.10;42.70;;;;;;5098259;28;20167;-81
2021/06/17 09:29:14;;;;;;;5.72;4.55;;;34.20;42.70;;;;;;5099808;28;20312;-81
2021/06/17 09:31:42;;;;;;;8.20;4.40;;;34.30;42.00;;;;;;5101843;28;20546;-81
2021/06/17 09:34:15;;;;;;;6.63;4.10;;;34.40;42.70;;;;;;5099531;28;20231;-81
2021/06/17 09:36:44;;;;;;;8.02;4.93;;;34.50;42.60;;;;;;5101133;28;20180;-83
2021/06/17 09:39:15;;;;;;;11.70;4.13;;;34.40;41.80;;;;;;5099416;28;20178;-82
2021/06/17 09:41:47;;;;;;;8.40;4.15;;;34.30;42.40;;;;;;5098976;28;20622;-82
2021/06/17 09:44:41;;;;;;;9.48;4.50;;;34.20;41.60;;;;;;5099554;28;20192;-82
2021/06/17 09:47:25;;;;;;;7.88;4.57;;;34.40;42.30;;;;;;5098818;28;20180;-82
2021/06/17 09:49:52;;;;;;;6.88;4.60;;;34.60;41.00;;;;;;5099981;28;20255;-83
2021/06/17 09:52:19;;;;;;;6.43;4.32;;;34.70;40.70;;;;;;5099912;28;20196;-82
2021/06/17 09:54:47;;;;;;;7.72;4.32;;;34.80;40.50;;;;;;5101616;28;20210;-83
2021/06/17 09:57:18;;;;;;;7.32;4.75;;;34.70;40.70;;;;;;5098611;28;20209;-82
2021/06/17 10:00:05;;;;;;;17.10;5.35;;;34.90;41.80;;;;;;5095806;28;20167;-81
2021/06/17 10:02:34;;;;;;;9.88;5.68;;;35.00;38.90;;;;;;5096069;28;20199;-82
2021/06/17 10:05:19;;;;;;;8.93;4.82;;;35.00;39.90;;;;;;5096599;28;20196;-81
2021/06/17 10:07:46;;;;;;;16.63;5.10;;;34.90;39.40;;;;;;5095927;28;20204;-82
2021/06/17 10:10:14;;;;;;;11.00;4.93;;;34.90;39.10;;;;;;5096152;28;20207;-82
2021/06/17 10:12:41;;;;;;;9.25;4.85;;;34.80;38.90;;;;;;5095927;28;20196;-81
2021/06/17 10:15:08;;;;;;;8.05;4.15;;;34.80;39.10;;;;;;5096876;28;20168;-82
2021/06/17 10:17:34;;;;;;;11.23;5.20;;;34.70;39.90;;;;;;5096899;28;20172;-79
2021/06/17 10:20:05;;;;;;;9.65;4.90;;;34.70;39.50;;;;;;5096453;28;20188;-81
2021/06/17 10:22:32;;;;;;;16.60;5.30;;;34.60;39.90;;;;;;5095751;28;20539;-83
2021/06/17 10:24:59;;;;;;;8.23;4.95;;;34.50;39.70;;;;;;5095396;28;20227;-82
2021/06/17 10:27:37;;;;;;;11.82;4.82;;;34.50;39.00;;;;;;5096129;28;20196;-83
2021/06/17 10:30:05;;;;;;;6.97;4.18;;;34.50;39.80;;;;;;5096184;28;20628;-83
2021/06/17 10:32:37;;;;;;;8.80;4.43;;;34.50;39.80;;;;;;5097308;28;20258;-82
2021/06/17 10:35:05;;;;;;;6.85;4.75;;;34.50;39.70;;;;;;5097289;28;20221;-81
2021/06/17 10:37:48;;;;;;;10.82;5.13;;;34.70;39.10;;;;;;5096918;28;20184;-81
2021/06/17 10:40:14;;;;;;;6.82;4.65;;;34.70;38.90;;;;;;5097442;28;20575;-82
2021/06/17 10:42:41;;;;;;;10.50;5.17;;;34.80;38.90;;;;;;5096036;28;20234;-82
2021/06/17 10:45:10;;;;;;;11.18;4.57;;;34.80;38.50;;;;;;5097620;28;20175;-81
2021/06/17 10:47:45;;;;;;;6.85;5.05;;;35.00;38.40;;;;;;5096866;28;20321;-82
2021/06/17 10:50:21;;;;;;;7.47;5.80;;;35.20;38.20;;;;;;5096010;28;20168;-81
2021/06/17 10:53:19;;;;;;;9.40;5.80;;;35.60;38.10;;;;;;5094912;28;20191;-82
2021/06/17 10:56:00;;;;;;;8.50;5.10;;;35.60;37.00;;;;;;5072206;28;20191;-83
2021/06/17 10:58:41;;;;;;;11.70;5.22;;;35.80;37.40;;;;;;5094380;28;20183;-83
2021/06/17 11:01:29;;;;;;;5.38;4.72;;;36.00;35.50;;;;;;5095510;28;20167;-82
2021/06/17 11:04:04;;;;;;;11.63;4.60;;;36.00;37.00;;;;;;5094357;28;20208;-83
2021/06/17 11:06:54;;;;;;;6.50;4.80;;;36.10;36.90;;;;;;5093570;28;20170;-82
2021/06/17 11:09:39;;;;;;;10.00;5.07;;;36.30;36.30;;;;;;5085829;28;20176;-82
2021/06/17 11:12:17;;;;;;;10.40;4.60;;;36.50;37.70;;;;;;5094063;28;20240;-84
2021/06/17 11:14:45;;;;;;;5.88;4.60;;;36.70;35.60;;;;;;5094755;28;20543;-83
2021/06/17 11:20:08;;;;;;;7.47;4.65;;;36.70;35.70;;;;;;5094791;28;20168;-83
2021/06/17 11:22:47;;;;;;;6.80;4.40;;;36.90;36.80;;;;;;5094492;28;20198;-82
2021/06/17 11:25:16;;;;;;;8.32;5.55;;;37.10;36.10;;;;;;5095733;28;20274;-83
2021/06/17 11:27:57;;;;;;;4.82;4.15;;;37.10;34.70;;;;;;5095025;28;20160;-83
2021/06/17 11:30:38;;;;;;;5.57;4.82;;;37.20;34.60;;;;;;5095105;28;20172;-83
2021/06/17 11:33:19;;;;;;;7.68;4.60;;;37.40;34.70;;;;;;5094991;28;20202;-82
2021/06/17 11:35:58;;;;;;;7.00;5.03;;;37.40;33.40;;;;;;5095631;28;20517;-83
2021/06/17 11:38:24;;;;;;;7.40;4.57;;;37.50;33.20;;;;;;5095110;28;20274;-83
2021/06/17 11:40:51;;;;;;;4.93;4.03;;;37.70;33.60;;;;;;5095354;28;20525;-82
2021/06/17 11:43:28;;;;;;;7.47;5.22;;;37.70;32.30;;;;;;5097147;28;20196;-83
2021/06/17 11:45:54;;;;;;;6.53;4.47;;;37.90;34.60;;;;;;5094448;28;20194;-83
2021/06/17 11:48:21;;;;;;;7.63;5.00;;;38.10;32.30;;;;;;5095510;28;20180;-83
2021/06/17 11:50:52;;;;;;;9.20;4.70;;;38.00;32.70;;;;;;5097725;28;20175;-84
2021/06/17 11:53:23;;;;;;;7.75;4.72;;;37.80;33.00;;;;;;5098412;28;20196;-83
2021/06/17 11:55:54;;;;;;;7.75;4.30;;;37.90;33.40;;;;;;5099231;28;20186;-82
2021/06/17 11:58:25;;;;;;;11.35;5.13;;;38.10;32.70;;;;;;5097959;28;20195;-82
2021/06/17 12:00:51;;;;;;;6.40;4.88;;;38.20;33.50;;;;;;5099205;28;20541;-82
2021/06/17 12:03:23;;;;;;;7.28;4.45;;;38.50;33.60;;;;;;5098903;28;20199;-83
2021/06/17 12:05:50;;;;;;;8.85;4.80;;;38.50;33.50;;;;;;5100071;28;20514;-83
2021/06/17 12:08:16;;;;;;;11.35;4.85;;;38.50;32.20;;;;;;5098931;28;20168;-82
2021/06/17 12:10:42;;;;;;;9.00;5.47;;;38.50;32.50;;;;;;5100154;28;20576;-83
2021/06/17 12:13:10;;;;;;;5.22;4.03;;;38.50;32.70;;;;;;5100442;28;20668;-83
2021/06/17 12:15:42;;;;;;;8.57;4.95;;;38.50;33.80;;;;;;5099629;28;20180;-83
2021/06/17 12:18:14;;;;;;;11.18;5.35;;;38.70;31.90;;;;;;5099556;28;20208;-83
2021/06/17 12:20:45;;;;;;;6.00;4.95;;;38.50;31.80;;;;;;5099342;28;20709;-83
2021/06/17 12:23:18;;;;;;;13.32;5.88;;;38.30;31.90;;;;;;5099393;28;20211;-83
2021/06/17 12:26:00;;;;;;;7.50;4.15;;;38.50;33.40;;;;;;5098908;28;20199;-83
2021/06/17 12:28:27;;;;;;;7.32;5.03;;;38.70;31.80;;;;;;5100769;28;20167;-83
2021/06/17 12:30:56;;;;;;;8.30;4.53;;;38.90;31.50;;;;;;5099387;28;20195;-83
2021/06/17 12:33:32;;;;;;;6.20;5.13;;;39.00;31.30;;;;;;5100064;28;20195;-83
2021/06/17 12:36:03;;;;;;;4.68;3.83;;;39.10;30.90;;;;;;5100527;28;20866;-83
2021/06/17 12:38:30;;;;;;;10.25;5.35;;;39.00;31.90;;;;;;5099279;28;20195;-83
2021/06/17 12:41:10;;;;;;;5.93;4.43;;;39.10;30.50;;;;;;5099012;28;20168;-83
2021/06/17 12:43:42;;;;;;;7.00;4.47;;;39.20;32.70;;;;;;5098667;28;20206;-83
2021/06/17 12:46:09;;;;;;;8.35;5.40;;;39.30;30.90;;;;;;5099198;28;20159;-82
2021/06/17 12:48:59;;;;;;;5.88;4.93;;;39.50;30.60;;;;;;5098714;28;20203;-82
2021/06/17 12:54:29;;;;;;;7.80;5.78;;;39.20;32.30;;;;;;5100243;28;20281;-83
2021/06/17 12:57:02;;;;;;;8.65;4.82;;;39.30;32.60;;;;;;5097979;28;20527;-83
2021/06/17 12:59:40;;;;;;;11.40;4.95;;;39.20;33.10;;;;;;5097621;28;20180;-83
2021/06/17 13:02:20;;;;;;;9.55;4.25;;;39.40;32.10;;;;;;5097504;28;20257;-83